Chariton, IA

10:20 AM CST on February 10, 2016 (GMT -0600)
Chariton Municipal

Weather History for KCNC - December, 2011

Change the Weather History Date:

Friday, December 30, 2011

  Actual Average Record
Temperature  
Mean Temperature 42 °F -  
Max Temperature 46 °F 31 °F 64 °F (2004)
Min Temperature 37 °F 13 °F -11 °F (1961)
Degree Days  
Heating Degree Days 24    
Moisture  
Dew Point 36 °F    
Average Humidity 78    
Maximum Humidity 87    
Minimum Humidity 71    
Precipitation  
Precipitation 0.11 in - - ()
Sea Level Pressure  
Sea Level Pressure 29.65 in    
Wind  
Wind Speed 14 mph (WNW)    
Max Wind Speed 26 mph    
Max Gust Speed 36 mph    
Visibility 10 miles    
Events Rain    
Averages and records for this station are not official NWS values.
T = Trace of Precipitation, MM = Missing Value Source: NWS Daily Summary

Daily Weather History Graph

Daily Weather History Graph

Search for Another Location

Airport or City:

Trip Planner

Search our weather history database for the weather conditions in past years. The results will help you decide how hot, cold, wet, or windy it might be!

Date:

Astronomy

Dec. 30, 2011 Rise Set
Actual Time 7:38 AM CST 4:53 PM CST
Civil Twilight 7:07 AM CST 5:24 PM CST
Nautical Twilight 6:32 AM CST 5:59 PM CST
Astronomical Twilight 5:59 AM CST 6:32 PM CST
Moon 10:54 AM CST (12/30) 11:33 PM CST (12/30)
Length of Visible Light 10h 17m
Length of Day
9h 15m
Waxing Crescent, 36% of the Moon is Illuminated
Dec 30
Waxing Crescent
Jan 1
First Quarter
Jan 9
Full
Jan 16
Last Quarter
Jan 23
New

Hourly Weather History & Observations

Time (CST) Temp. Windchill Dew Point Humidity Pressure Visibility Wind Dir Wind Speed Gust Speed Precip Events Conditions
12:15 AM 44.6 °F 38.8 °F 37.4 °F 76% 29.48 in 10.0 mi South 11.5 mph - N/A   Mostly Cloudy
12:35 AM 44.6 °F 40.7 °F 37.4 °F 76% 29.49 in 10.0 mi SSW 6.9 mph - N/A   Overcast
12:55 AM 46.4 °F 41.1 °F 37.4 °F 71% 29.48 in 10.0 mi South 11.5 mph - N/A   Mostly Cloudy
1:35 AM 44.6 °F 38.4 °F 37.4 °F 76% 29.46 in 10.0 mi SSW 12.7 mph - N/A Rain Light Rain
1:55 AM 44.6 °F 38.8 °F 39.2 °F 81% 29.46 in 10.0 mi SSW 11.5 mph - N/A   Drizzle
2:15 AM 44.6 °F 38.8 °F 39.2 °F 81% 29.46 in 10.0 mi SSW 11.5 mph - 0.05 in Rain Rain
2:55 AM 44.6 °F 39.2 °F 39.2 °F 81% 29.45 in 10.0 mi SSW 10.4 mph - 0.09 in Rain Light Rain
3:15 AM 44.6 °F 39.7 °F 39.2 °F 81% 29.45 in 10.0 mi SW 9.2 mph - 0.01 in Rain Rain
3:35 AM 44.6 °F 38.8 °F 39.2 °F 81% 29.44 in 10.0 mi WSW 11.5 mph - 0.02 in   Drizzle
3:55 AM 42.8 °F 35.1 °F 37.4 °F 81% 29.44 in 10.0 mi West 16.1 mph 20.7 mph 0.02 in   Overcast
4:15 AM 42.8 °F 35.4 °F 37.4 °F 81% 29.44 in 10.0 mi West 15.0 mph 21.9 mph N/A   Overcast
4:35 AM 42.8 °F 34.3 °F 37.4 °F 81% 29.43 in 10.0 mi West 19.6 mph 25.3 mph N/A   Overcast
4:55 AM 42.8 °F 35.1 °F 37.4 °F 81% 29.44 in 10.0 mi WNW 16.1 mph 25.3 mph N/A   Overcast
5:35 AM 42.8 °F 34.3 °F 37.4 °F 81% 29.46 in 10.0 mi WNW 19.6 mph 26.5 mph N/A   Overcast
6:15 AM 41.0 °F 30.5 °F 35.6 °F 81% 29.48 in 10.0 mi WNW 26.5 mph 33.4 mph N/A   Overcast
7:15 AM 39.2 °F 29.3 °F 33.8 °F 81% 29.52 in 10.0 mi WNW 20.7 mph 32.2 mph N/A   Overcast
7:35 AM 39.2 °F 28.0 °F 33.8 °F 81% 29.52 in 7.0 mi WNW 26.5 mph 35.7 mph N/A   Drizzle
7:55 AM 37.4 °F 26.1 °F 33.8 °F 87% 29.53 in 10.0 mi WNW 24.2 mph 33.4 mph N/A   Light Drizzle
8:15 AM 39.2 °F 29.3 °F 33.8 °F 81% 29.55 in 10.0 mi WNW 20.7 mph 32.2 mph N/A   Overcast
8:35 AM 37.4 °F 26.4 °F 33.8 °F 87% 29.56 in 10.0 mi NW 23.0 mph 34.5 mph N/A   Overcast
9:15 AM 39.2 °F 28.7 °F 33.8 °F 81% 29.57 in 10.0 mi WNW 23.0 mph 32.2 mph N/A   Overcast
9:35 AM 39.2 °F 28.5 °F 33.8 °F 81% 29.59 in 10.0 mi WNW 24.2 mph 29.9 mph N/A   Overcast
9:55 AM 39.2 °F 29.6 °F 33.8 °F 81% 29.60 in 10.0 mi WNW 19.6 mph 33.4 mph N/A   Overcast
10:15 AM 39.2 °F 29.3 °F 33.8 °F 81% 29.61 in 10.0 mi WNW 20.7 mph 26.5 mph N/A   Overcast
10:35 AM 39.2 °F 29.6 °F 33.8 °F 81% 29.61 in 10.0 mi NW 19.6 mph 28.8 mph N/A   Overcast
10:55 AM 41.0 °F 32.2 °F 35.6 °F 81% 29.62 in 10.0 mi NW 18.4 mph 27.6 mph N/A   Overcast
11:15 AM 42.8 °F 34.5 °F 35.6 °F 76% 29.62 in 10.0 mi NW 18.4 mph 28.8 mph N/A   Overcast
11:35 AM 42.8 °F 34.0 °F 35.6 °F 76% 29.62 in 10.0 mi NW 20.7 mph 27.6 mph N/A   Overcast
11:55 AM 41.0 °F 31.9 °F 35.6 °F 81% 29.63 in 10.0 mi NW 19.6 mph 32.2 mph N/A   Overcast
12:15 PM 42.8 °F 34.5 °F 35.6 °F 76% 29.63 in 10.0 mi NW 18.4 mph 32.2 mph N/A   Overcast
12:35 PM 42.8 °F 35.1 °F 35.6 °F 76% 29.64 in 10.0 mi NW 16.1 mph 27.6 mph N/A   Overcast
1:15 PM 42.8 °F 34.5 °F 35.6 °F 76% 29.66 in 10.0 mi NW 18.4 mph 27.6 mph N/A   Overcast
1:35 PM 42.8 °F 34.8 °F 35.6 °F 76% 29.67 in 10.0 mi NW 17.3 mph 27.6 mph N/A   Overcast
1:55 PM 42.8 °F 34.0 °F 35.6 °F 76% 29.68 in 10.0 mi NW 20.7 mph 26.5 mph N/A   Overcast
2:15 PM 42.8 °F 34.8 °F 35.6 °F 76% 29.70 in 10.0 mi NW 17.3 mph 24.2 mph N/A   Overcast
2:35 PM 42.8 °F 34.5 °F 35.6 °F 76% 29.72 in 10.0 mi NW 18.4 mph 25.3 mph N/A   Overcast
2:55 PM 42.8 °F 35.1 °F 35.6 °F 76% 29.73 in 10.0 mi NW 16.1 mph 25.3 mph N/A   Overcast
3:15 PM 42.8 °F 34.0 °F 35.6 °F 76% 29.74 in 10.0 mi NW 20.7 mph 27.6 mph N/A   Overcast
3:35 PM 42.8 °F 35.1 °F 35.6 °F 76% 29.76 in 10.0 mi NW 16.1 mph 23.0 mph N/A   Overcast
3:55 PM 42.8 °F 36.2 °F 35.6 °F 76% 29.78 in 10.0 mi NW 12.7 mph - N/A   Overcast
4:15 PM 42.8 °F 36.2 °F 35.6 °F 76% 29.79 in 10.0 mi NW 12.7 mph - N/A   Overcast
4:35 PM 42.8 °F 38.0 °F 35.6 °F 76% 29.80 in 10.0 mi WNW 8.1 mph - N/A   Overcast
4:55 PM 42.8 °F 38.0 °F 35.6 °F 76% 29.81 in 10.0 mi WNW 8.1 mph - N/A   Overcast
5:15 PM 42.8 °F 37.0 °F 35.6 °F 76% 29.82 in 10.0 mi WNW 10.4 mph - N/A   Overcast
5:35 PM 42.8 °F 36.2 °F 35.6 °F 76% 29.83 in 10.0 mi WNW 12.7 mph 16.1 mph N/A   Overcast
5:55 PM 42.8 °F 37.0 °F 35.6 °F 76% 29.84 in 10.0 mi WNW 10.4 mph 17.3 mph N/A   Overcast
6:15 PM 42.8 °F 38.0 °F 35.6 °F 76% 29.86 in 10.0 mi WNW 8.1 mph - N/A   Overcast
6:35 PM 42.8 °F 36.6 °F 35.6 °F 76% 29.86 in 10.0 mi WNW 11.5 mph - N/A   Overcast
6:55 PM 42.8 °F 37.0 °F 35.6 °F 76% 29.88 in 10.0 mi WNW 10.4 mph - N/A   Overcast
7:15 PM 42.8 °F 37.5 °F 35.6 °F 76% 29.88 in 10.0 mi NW 9.2 mph - N/A   Overcast
7:35 PM 42.8 °F 40.1 °F 35.6 °F 76% 29.89 in 10.0 mi WNW 4.6 mph - N/A   Overcast
7:55 PM 42.8 °F 40.1 °F 35.6 °F 76% 29.89 in 10.0 mi WNW 4.6 mph - N/A   Overcast
8:15 PM 41.0 °F 39.0 °F 35.6 °F 81% 29.89 in 10.0 mi WNW 3.5 mph - N/A   Overcast
8:35 PM 41.0 °F 38.0 °F 35.6 °F 81% 29.89 in 10.0 mi West 4.6 mph - N/A   Overcast
8:55 PM 41.0 °F 36.4 °F 33.8 °F 76% 29.90 in 10.0 mi West 6.9 mph - N/A   Overcast
9:15 PM 41.0 °F 36.4 °F 33.8 °F 76% 29.90 in 10.0 mi WNW 6.9 mph - N/A   Overcast
9:35 PM 41.0 °F 39.0 °F 33.8 °F 76% 29.89 in 10.0 mi NW 3.5 mph - N/A   Overcast
9:55 PM 41.0 °F 38.0 °F 33.8 °F 76% 29.89 in 10.0 mi WNW 4.6 mph - N/A   Overcast
10:15 PM 41.0 °F 39.0 °F 33.8 °F 76% 29.90 in 10.0 mi West 3.5 mph - N/A   Overcast
10:35 PM 41.0 °F 35.8 °F 33.8 °F 76% 29.91 in 10.0 mi West 8.1 mph - N/A   Overcast
10:55 PM 41.0 °F 35.8 °F 33.8 °F 76% 29.90 in 10.0 mi WNW 8.1 mph - N/A   Overcast
11:35 PM 39.2 °F 37.0 °F 33.8 °F 81% 29.91 in 10.0 mi WNW 3.5 mph - N/A   Overcast
11:55 PM 39.2 °F - 32.0 °F 75% 29.91 in 10.0 mi Calm Calm - N/A   Overcast